createdAt,value
2022-08-18T00:04:36.022Z,51.54
2022-08-18T00:09:32.741Z,51.65
2022-08-18T00:14:38.995Z,51.66
2022-08-18T00:19:48.384Z,51.85
2022-08-18T00:24:53.356Z,52.24
2022-08-18T00:30:00.628Z,51.96
2022-08-18T00:35:07.833Z,51.38
2022-08-18T00:40:15.097Z,51.89
2022-08-18T00:45:22.207Z,51.85
2022-08-18T00:50:29.395Z,51.60
2022-08-18T00:55:36.626Z,52.67
2022-08-18T01:00:43.864Z,52.03
2022-08-18T01:05:51.025Z,52.03
2022-08-18T01:10:58.224Z,51.92
2022-08-18T01:16:05.414Z,51.98
2022-08-18T01:21:12.666Z,51.93
2022-08-18T01:26:19.851Z,52.04
2022-08-18T01:31:27.046Z,52.27
2022-08-18T01:36:34.267Z,52.51
2022-08-18T01:41:41.534Z,52.62
2022-08-18T01:46:48.650Z,52.70
2022-08-18T01:51:55.892Z,52.86
2022-08-18T01:57:03.124Z,53.12
2022-08-18T02:02:10.343Z,52.99
2022-08-18T02:07:17.575Z,53.47
2022-08-18T02:12:24.780Z,53.56
2022-08-18T02:17:31.991Z,53.76
2022-08-18T02:22:39.152Z,53.79
2022-08-18T02:27:46.382Z,53.89
2022-08-18T02:32:53.581Z,53.88
2022-08-18T02:38:00.736Z,53.84
2022-08-18T02:43:07.952Z,54.54
2022-08-18T02:48:15.117Z,54.58
2022-08-18T02:53:22.273Z,54.57
2022-08-18T02:58:33.585Z,54.86
2022-08-18T03:03:36.789Z,54.70
2022-08-18T03:08:43.970Z,54.63
2022-08-18T03:13:51.224Z,54.74
2022-08-18T03:18:58.491Z,54.79
2022-08-18T03:24:09.316Z,54.63
2022-08-18T03:29:13.027Z,54.62
2022-08-18T03:34:20.321Z,54.95
2022-08-18T03:39:28.021Z,55.16
2022-08-18T03:44:34.910Z,55.32
2022-08-18T03:49:42.048Z,55.65
2022-08-18T03:54:49.364Z,55.59
2022-08-18T03:59:56.614Z,54.96
2022-08-18T04:05:05.188Z,54.81
2022-08-18T04:10:16.242Z,54.72
2022-08-18T04:15:18.183Z,54.75
2022-08-18T04:20:25.320Z,55.13
2022-08-18T04:25:33.191Z,54.99
2022-08-18T04:30:39.773Z,54.65
2022-08-18T04:35:46.967Z,54.43
2022-08-18T04:40:54.188Z,54.84
2022-08-18T04:46:01.404Z,54.94
2022-08-18T04:51:11.209Z,55.05
2022-08-18T04:56:18.429Z,55.06
2022-08-18T05:01:26.095Z,55.05
2022-08-18T05:06:33.044Z,55.65
2022-08-18T05:11:40.285Z,56.30
2022-08-18T05:16:48.919Z,56.46
2022-08-18T05:21:59.513Z,56.76
2022-08-18T05:27:02.124Z,56.12
2022-08-18T05:32:09.575Z,56.78
2022-08-18T05:37:16.844Z,56.32
2022-08-18T05:42:24.116Z,56.79
2022-08-18T05:47:32.210Z,55.99
2022-08-18T05:52:39.398Z,56.75
2022-08-18T05:57:46.667Z,56.26
2022-08-18T06:02:53.927Z,55.78
2022-08-18T06:08:01.452Z,56.09
2022-08-18T06:13:08.686Z,56.15
2022-08-18T06:18:17.500Z,56.24
2022-08-18T06:23:24.721Z,56.40
2022-08-18T06:28:31.915Z,55.95
2022-08-18T06:33:39.117Z,56.34
2022-08-18T06:38:46.371Z,56.55
2022-08-18T06:43:53.598Z,56.81
2022-08-18T06:49:00.859Z,58.08
2022-08-18T06:54:08.067Z,58.66
2022-08-18T06:59:15.223Z,56.06
2022-08-18T07:04:22.443Z,56.11
2022-08-18T07:09:29.723Z,56.24
2022-08-18T07:14:37.801Z,56.35
2022-08-18T07:19:45.003Z,57.27
2022-08-18T07:24:52.267Z,57.83
2022-08-18T07:29:59.473Z,57.82
2022-08-18T07:35:06.627Z,58.04
2022-08-18T07:40:13.932Z,58.36
2022-08-18T07:45:22.282Z,57.33
2022-08-18T07:50:57.634Z,57.06
2022-08-18T07:55:36.876Z,57.22
2022-08-18T08:01:00.361Z,58.03
2022-08-18T08:05:51.472Z,57.79
2022-08-18T08:10:58.669Z,58.05
2022-08-18T08:16:05.820Z,58.75
2022-08-18T08:21:13.022Z,59.20
2022-08-18T08:26:20.256Z,59.36
2022-08-18T08:31:42.310Z,59.44
2022-08-18T08:36:34.788Z,59.20
2022-08-18T08:41:42.047Z,59.21
2022-08-18T08:46:49.301Z,59.42
2022-08-18T08:51:56.569Z,59.47
2022-08-18T08:57:03.763Z,59.39
2022-08-18T09:02:22.673Z,58.49
2022-08-18T09:07:18.434Z,58.29
2022-08-18T09:12:25.839Z,58.19
2022-08-18T09:17:34.138Z,58.18
2022-08-18T09:22:40.249Z,57.81
2022-08-18T09:28:10.606Z,58.45
2022-08-18T09:32:54.920Z,58.56
2022-08-18T09:38:02.000Z,58.19
2022-08-18T09:43:09.187Z,58.05
2022-08-18T09:48:25.092Z,58.12
2022-08-18T09:53:23.556Z,57.96
2022-08-18T09:58:30.779Z,57.75
2022-08-18T10:03:38.044Z,57.80
2022-08-18T10:08:45.281Z,57.95
2022-08-18T10:13:52.473Z,58.01
2022-08-18T10:18:59.668Z,57.95
2022-08-18T10:24:35.855Z,58.10
2022-08-18T10:29:15.991Z,57.96
2022-08-18T10:34:21.402Z,58.09
2022-08-18T10:39:28.730Z,58.27
2022-08-18T10:44:35.929Z,57.95
2022-08-18T10:49:46.809Z,57.79
2022-08-18T10:54:51.676Z,57.66
2022-08-18T10:59:57.725Z,57.40
2022-08-18T11:05:04.991Z,57.58
2022-08-18T11:10:28.450Z,57.61
2022-08-18T11:15:22.149Z,57.73
2022-08-18T11:20:27.100Z,57.53
2022-08-18T11:25:34.379Z,57.58
2022-08-18T11:30:41.597Z,57.34
2022-08-18T11:35:48.796Z,57.22
2022-08-18T11:41:09.905Z,56.89
2022-08-18T11:46:03.516Z,56.75
2022-08-18T11:51:10.755Z,56.40
2022-08-18T11:56:17.983Z,56.34
2022-08-18T12:01:25.214Z,56.45
2022-08-18T12:06:32.372Z,56.42
2022-08-18T12:11:41.767Z,56.51
2022-08-18T12:16:46.771Z,56.58
2022-08-18T12:21:54.585Z,56.47
2022-08-18T12:27:01.276Z,56.53
2022-08-18T12:32:18.069Z,56.57
2022-08-18T12:37:54.473Z,56.76
2022-08-18T12:42:22.972Z,56.31
2022-08-18T12:47:31.153Z,56.12
2022-08-18T12:52:37.664Z,56.02
2022-08-18T12:57:52.262Z,55.92
2022-08-18T13:02:52.201Z,55.88
2022-08-18T13:07:59.357Z,55.74
2022-08-18T13:13:06.550Z,55.57
2022-08-18T13:18:14.199Z,55.66
2022-08-18T13:23:24.925Z,55.60
2022-08-18T13:28:30.541Z,55.89
2022-08-18T13:33:56.598Z,55.57
2022-08-18T13:38:43.354Z,55.74
2022-08-18T13:43:50.389Z,55.44
2022-08-18T13:48:57.561Z,55.98
2022-08-18T13:54:28.854Z,56.09
2022-08-18T13:59:12.029Z,55.84
2022-08-18T14:04:20.168Z,55.49
2022-08-18T14:09:27.841Z,56.18
2022-08-18T14:14:33.631Z,57.38
2022-08-18T14:19:40.939Z,55.96
2022-08-18T14:24:49.115Z,57.57
2022-08-18T14:29:55.457Z,57.10
2022-08-18T14:35:33.119Z,57.77
2022-08-18T14:40:12.348Z,58.43
2022-08-18T14:45:26.489Z,57.38
2022-08-18T14:50:25.635Z,57.05
2022-08-18T14:55:31.474Z,56.83
2022-08-18T15:00:49.890Z,56.62
2022-08-18T15:05:45.831Z,56.52
2022-08-18T15:10:53.083Z,56.60
2022-08-18T15:16:02.087Z,56.85
2022-08-18T15:21:10.349Z,56.96
2022-08-18T15:26:16.437Z,57.34
2022-08-18T15:36:30.876Z,57.00
2022-08-18T15:41:43.791Z,57.12
2022-08-18T15:46:51.382Z,57.22
2022-08-18T15:51:52.803Z,57.29
2022-08-18T15:56:59.804Z,57.37
2022-08-18T16:02:07.199Z,57.34
2022-08-18T16:07:14.284Z,57.23
2022-08-18T16:12:21.581Z,57.22
2022-08-18T16:17:31.760Z,57.26
2022-08-18T16:22:36.039Z,57.24
2022-08-18T16:27:43.275Z,57.11
2022-08-18T16:32:50.452Z,57.12
2022-08-18T16:37:57.636Z,57.16
2022-08-18T16:43:04.852Z,57.23
2022-08-18T16:48:16.331Z,57.09
2022-08-18T16:53:19.280Z,57.50
2022-08-18T16:58:26.544Z,57.98
2022-08-18T17:03:33.722Z,57.67
2022-08-18T17:08:40.980Z,57.85
2022-08-18T17:13:48.257Z,58.19
2022-08-18T17:18:55.517Z,58.13
2022-08-18T17:24:03.968Z,58.63
2022-08-18T17:29:11.232Z,59.07
2022-08-18T17:34:18.500Z,58.75
2022-08-18T17:39:25.740Z,58.66
2022-08-18T17:44:32.944Z,58.66
2022-08-18T17:49:40.169Z,58.35
2022-08-18T17:54:47.467Z,58.17
2022-08-18T17:59:54.712Z,58.33
2022-08-18T18:05:01.945Z,58.43
2022-08-18T18:10:09.143Z,58.24
2022-08-18T18:15:16.401Z,58.14
2022-08-18T18:20:23.605Z,58.21
2022-08-18T18:25:30.839Z,58.33
2022-08-18T18:30:38.064Z,58.33
2022-08-18T18:35:53.274Z,58.33
2022-08-18T18:40:52.623Z,58.42
2022-08-18T18:45:59.827Z,58.64
2022-08-18T18:51:11.773Z,58.97
2022-08-18T18:56:14.333Z,58.68
2022-08-18T19:01:21.705Z,58.79
2022-08-18T19:06:28.889Z,58.72
2022-08-18T19:11:36.051Z,58.69
2022-08-18T19:16:43.813Z,58.61
2022-08-18T19:22:03.993Z,58.51
2022-08-18T19:26:58.224Z,58.54
2022-08-18T19:32:05.499Z,58.17
2022-08-18T19:37:12.709Z,58.08
2022-08-18T19:42:19.940Z,58.32
2022-08-18T19:47:27.113Z,58.15
2022-08-18T19:52:45.508Z,58.25
2022-08-18T19:57:41.625Z,58.28
2022-08-18T20:02:48.904Z,58.25
2022-08-18T20:07:56.082Z,58.54
2022-08-18T20:13:03.256Z,58.51
2022-08-18T20:18:10.451Z,58.54
2022-08-18T20:23:17.666Z,58.17
2022-08-18T20:28:24.825Z,58.38
2022-08-18T20:33:32.021Z,58.81
2022-08-18T20:38:39.291Z,58.24
2022-08-18T20:43:46.452Z,58.51
2022-08-18T20:48:53.656Z,58.22
2022-08-18T20:54:01.506Z,57.72
2022-08-18T20:59:09.218Z,57.40
2022-08-18T21:04:15.944Z,57.50
2022-08-18T21:09:23.120Z,57.38
2022-08-18T21:14:30.310Z,57.19
2022-08-18T21:19:37.514Z,57.27
2022-08-18T21:24:45.423Z,57.30
2022-08-18T21:29:52.636Z,57.05
2022-08-18T21:34:59.830Z,57.22
2022-08-18T21:40:07.114Z,57.41
2022-08-18T21:45:14.197Z,57.19
2022-08-18T21:50:21.405Z,56.87
2022-08-18T21:55:28.592Z,56.75
2022-08-18T22:00:35.796Z,56.80
2022-08-18T22:05:58.002Z,56.82
2022-08-18T22:10:50.138Z,57.08
2022-08-18T22:15:57.330Z,57.24
2022-08-18T22:21:07.256Z,57.35
2022-08-18T22:26:11.806Z,57.35
2022-08-18T22:31:21.315Z,57.10
2022-08-18T22:36:26.386Z,57.04
2022-08-18T22:41:33.566Z,56.91
2022-08-18T22:46:40.835Z,56.85
2022-08-18T22:51:48.051Z,56.87
2022-08-18T22:56:57.730Z,56.94
2022-08-18T23:02:02.474Z,56.80
2022-08-18T23:07:09.714Z,56.79
2022-08-18T23:12:16.996Z,56.97
2022-08-18T23:17:24.403Z,56.79
2022-08-18T23:22:31.637Z,56.91
2022-08-18T23:27:38.845Z,57.11
2022-08-18T23:32:45.996Z,56.89
2022-08-18T23:37:53.180Z,56.95
2022-08-18T23:43:00.375Z,56.81
2022-08-18T23:48:07.567Z,57.08
2022-08-18T23:53:14.723Z,56.82
2022-08-18T23:58:22.329Z,56.97
